Time;durP1;ratioP1;P1;durP2;ratioP2;P2;SDS_P1;SDS_P2;PMS_P1;PMS_P2;Temp;Humidity;BMP_temperature;BMP_pressure;BME280_temperature;BME280_humidity;BME280_pressure;Samples;Min_cycle;Max_cycle;Signal;HPM_P1;HPM_P2
2023/07/14 00:02:04;;;;;;;238.07;230.67;;;16.10;99.90;;;;;;4958291;28;20235;-91
2023/07/14 00:04:42;;;;;;;236.53;229.17;;;16.10;99.90;;;;;;4947330;28;20327;-87
2023/07/14 00:07:53;;;;;;;238.77;231.33;;;16.20;99.90;;;;;;4954348;28;20231;-91
2023/07/14 00:10:58;;;;;;;;;;;;;;;;;;;;;
2023/07/14 00:13:53;;;;;;;;;;;;;;;;;;;;;
2023/07/14 00:21:14;;;;;;;247.03;239.07;;;16.20;99.90;;;;;;4911776;28;20804;-88
2023/07/14 00:24:19;;;;;;;242.70;234.93;;;16.40;99.90;;;;;;4869868;29;20712;-89
2023/07/14 00:30:42;;;;;;;260.90;252.80;;;16.50;99.90;;;;;;5010771;28;20612;-85
2023/07/14 00:40:15;;;;;;;253.07;245.03;;;16.60;99.90;;;;;;4996098;28;20256;-87
2023/07/14 00:50:42;;;;;;;273.27;264.50;;;16.70;99.90;;;;;;5008631;28;20628;-87
2023/07/14 00:54:03;;;;;;;268.90;260.13;;;16.70;99.90;;;;;;4871926;29;20241;-90
2023/07/14 00:57:04;;;;;;;265.70;257.07;;;16.70;99.90;;;;;;4944658;28;20565;-90
2023/07/14 01:00:13;;;;;;;264.57;256.17;;;16.80;99.90;;;;;;4977060;28;20373;-86
2023/07/14 01:03:15;;;;;;;266.23;257.77;;;16.80;99.90;;;;;;4983943;28;20727;-85
2023/07/14 01:17:45;;;;;;;252.20;244.03;;;16.60;99.90;;;;;;4873466;29;20759;-92
2023/07/14 01:21:21;;;;;;;269.10;260.60;;;16.50;99.90;;;;;;4903412;28;20219;-85
2023/07/14 01:28:33;;;;;;;271.43;263.00;;;16.40;99.90;;;;;;4933498;28;20596;-87
2023/07/14 01:35:36;;;;;;;269.20;260.57;;;16.30;99.90;;;;;;4877717;29;20926;-90
2023/07/14 01:38:54;;;;;;;269.97;261.33;;;16.20;99.90;;;;;;4869131;29;20227;-87
2023/07/14 01:41:50;;;;;;;263.37;254.60;;;16.20;99.90;;;;;;4865004;29;20245;-85
2023/07/14 01:56:04;;;;;;;239.07;231.30;;;16.20;99.90;;;;;;4874468;29;20266;-86
2023/07/14 01:59:17;;;;;;;259.07;250.47;;;16.20;99.90;;;;;;4854008;29;20315;-93
2023/07/14 02:02:54;;;;;;;;;;;;;;;;;;;;;
2023/07/14 02:17:18;;;;;;;249.97;241.70;;;16.00;99.90;;;;;;4811158;29;20273;-86
2023/07/14 02:19:45;;;;;;;249.23;239.83;;;16.00;99.90;;;;;;4868179;29;20710;-86
2023/07/14 02:22:11;;;;;;;230.73;223.57;;;15.90;99.90;;;;;;4932068;28;20230;-86
2023/07/14 02:24:37;;;;;;;240.27;232.40;;;15.90;99.90;;;;;;4969183;28;20220;-86
2023/07/14 02:27:04;;;;;;;244.27;236.70;;;15.90;99.90;;;;;;4956452;28;20207;-86
2023/07/14 02:29:30;;;;;;;267.33;258.83;;;15.80;99.90;;;;;;4977272;28;20577;-87
2023/07/14 02:32:11;;;;;;;252.80;244.43;;;15.90;99.90;;;;;;4972293;28;20293;-86
2023/07/14 02:34:49;;;;;;;234.67;227.33;;;15.90;99.90;;;;;;4989699;28;20232;-86
2023/07/14 02:38:03;;;;;;;251.17;243.33;;;16.00;99.90;;;;;;4972730;28;20219;-87
2023/07/14 02:40:34;;;;;;;252.97;244.63;;;16.00;99.90;;;;;;4989663;28;20223;-87
2023/07/14 02:43:05;;;;;;;245.60;237.63;;;16.10;99.90;;;;;;4972431;28;20212;-87
2023/07/14 02:45:36;;;;;;;273.90;265.23;;;16.20;99.90;;;;;;4989922;28;20610;-87
2023/07/14 02:48:06;;;;;;;250.77;242.70;;;16.20;99.90;;;;;;4957186;28;20657;-88
2023/07/14 02:50:31;;;;;;;241.00;233.47;;;16.20;99.90;;;;;;4973292;28;20227;-87
2023/07/14 02:52:57;;;;;;;246.07;238.13;;;16.20;99.90;;;;;;4972151;28;20263;-86
2023/07/14 02:55:23;;;;;;;253.23;244.40;;;16.20;99.90;;;;;;4988925;28;20212;-85
2023/07/14 02:57:49;;;;;;;238.30;230.77;;;16.10;99.90;;;;;;4971638;28;20379;-88
2023/07/14 03:00:15;;;;;;;254.90;246.63;;;16.10;99.90;;;;;;4956660;28;20311;-88
2023/07/14 03:02:41;;;;;;;224.80;217.73;;;16.10;99.90;;;;;;4973139;28;20664;-88
2023/07/14 03:05:11;;;;;;;251.10;243.30;;;16.10;99.90;;;;;;4972814;28;20215;-88
2023/07/14 03:07:38;;;;;;;237.73;229.47;;;16.00;99.90;;;;;;4972556;28;20239;-88
2023/07/14 03:10:08;;;;;;;231.60;223.30;;;16.00;99.90;;;;;;4956357;28;20820;-89
2023/07/14 03:12:39;;;;;;;249.40;241.47;;;16.00;99.90;;;;;;4972804;28;20238;-88
2023/07/14 03:15:17;;;;;;;248.00;239.87;;;16.00;99.90;;;;;;4989425;28;20625;-88
2023/07/14 03:17:46;;;;;;;222.67;215.40;;;16.00;99.90;;;;;;4972840;28;20629;-89
2023/07/14 03:20:14;;;;;;;230.67;222.97;;;16.00;99.90;;;;;;4956708;28;20315;-88
2023/07/14 03:22:39;;;;;;;238.33;230.70;;;16.00;99.90;;;;;;4989041;28;20303;-88
2023/07/14 03:25:06;;;;;;;247.63;239.77;;;16.00;99.90;;;;;;4946047;28;20258;-88
2023/07/14 03:27:32;;;;;;;235.40;227.63;;;16.00;99.90;;;;;;4988691;28;20370;-88
2023/07/14 03:29:58;;;;;;;237.30;229.20;;;15.90;99.90;;;;;;4982704;28;20223;-88
2023/07/14 03:32:24;;;;;;;220.87;213.83;;;15.90;99.90;;;;;;4992374;28;20569;-88
2023/07/14 03:34:50;;;;;;;226.43;219.27;;;15.90;99.90;;;;;;4952167;28;20597;-88
2023/07/14 03:37:15;;;;;;;225.87;218.67;;;15.90;99.90;;;;;;4956297;28;20243;-88
2023/07/14 03:39:41;;;;;;;227.53;220.13;;;15.90;99.90;;;;;;4989744;28;20634;-88
2023/07/14 03:42:07;;;;;;;232.33;225.30;;;15.90;99.90;;;;;;4989176;28;20207;-88
2023/07/14 03:44:34;;;;;;;252.70;244.77;;;16.00;99.90;;;;;;4972900;28;20339;-88
2023/07/14 03:47:02;;;;;;;246.73;238.67;;;15.90;99.90;;;;;;4956319;28;20299;-89
2023/07/14 03:49:28;;;;;;;239.83;232.40;;;16.00;99.90;;;;;;4989193;28;20212;-89
2023/07/14 03:51:54;;;;;;;237.73;229.83;;;15.90;99.90;;;;;;4989208;28;20250;-87
2023/07/14 03:54:21;;;;;;;239.20;231.77;;;16.00;99.90;;;;;;4972173;28;20682;-88
2023/07/14 03:56:47;;;;;;;221.40;214.17;;;16.00;99.90;;;;;;4989959;28;20191;-88
2023/07/14 03:59:16;;;;;;;236.53;229.00;;;16.10;99.90;;;;;;4989286;28;20351;-88
2023/07/14 04:01:42;;;;;;;247.37;239.87;;;16.10;99.90;;;;;;4988933;28;20309;-89
2023/07/14 04:04:08;;;;;;;233.83;226.63;;;16.10;99.90;;;;;;4955756;28;20776;-88
2023/07/14 04:06:34;;;;;;;237.30;229.70;;;16.20;99.90;;;;;;4972042;28;20283;-88
2023/07/14 04:09:01;;;;;;;235.13;227.87;;;16.20;99.90;;;;;;4955550;28;20181;-89
2023/07/14 04:11:27;;;;;;;247.83;240.33;;;16.20;99.90;;;;;;4972476;28;20191;-88
2023/07/14 04:13:53;;;;;;;239.03;231.37;;;16.20;99.90;;;;;;4955458;28;20303;-88
2023/07/14 04:16:23;;;;;;;241.10;233.83;;;16.10;99.90;;;;;;4971965;28;20294;-88
2023/07/14 04:18:49;;;;;;;230.17;222.60;;;16.10;99.90;;;;;;4971907;28;20211;-88
2023/07/14 04:21:24;;;;;;;237.67;230.27;;;16.20;99.90;;;;;;4973985;28;20184;-88
2023/07/14 04:23:53;;;;;;;228.53;221.60;;;16.20;99.90;;;;;;4976162;28;20290;-88
2023/07/14 04:26:22;;;;;;;226.87;219.60;;;16.30;99.90;;;;;;4959641;28;20212;-88
2023/07/14 04:28:48;;;;;;;242.20;234.70;;;16.30;99.90;;;;;;4974894;28;20216;-88
2023/07/14 04:31:14;;;;;;;203.00;196.30;;;16.40;99.90;;;;;;4975100;28;20306;-89
2023/07/14 04:33:45;;;;;;;231.67;224.33;;;16.50;99.90;;;;;;4975082;28;20227;-87
2023/07/14 04:36:12;;;;;;;208.97;202.40;;;16.60;99.90;;;;;;4974733;28;20183;-88
2023/07/14 04:38:40;;;;;;;220.60;213.90;;;16.70;99.90;;;;;;4975577;28;20184;-88
2023/07/14 04:41:05;;;;;;;229.23;221.23;;;16.80;99.90;;;;;;4974954;28;20242;-88
2023/07/14 04:43:32;;;;;;;231.33;224.13;;;16.80;99.90;;;;;;4942792;28;20669;-87
2023/07/14 04:45:58;;;;;;;240.67;233.07;;;16.90;99.90;;;;;;4958544;28;20215;-88
2023/07/14 04:48:24;;;;;;;230.10;223.20;;;16.90;99.90;;;;;;4975018;28;20204;-89
2023/07/14 04:50:51;;;;;;;204.83;198.43;;;17.00;99.90;;;;;;4975449;28;20199;-88
2023/07/14 04:53:19;;;;;;;183.57;177.80;;;17.10;99.90;;;;;;4974820;28;20224;-88
2023/07/14 04:55:46;;;;;;;201.33;195.10;;;17.20;99.90;;;;;;4974527;28;20360;-88
2023/07/14 04:58:14;;;;;;;183.97;177.60;;;17.30;99.90;;;;;;4974890;28;20212;-88
2023/07/14 05:00:44;;;;;;;182.23;176.63;;;17.40;99.90;;;;;;4974216;28;20223;-88
2023/07/14 05:03:10;;;;;;;179.37;173.77;;;17.40;99.90;;;;;;4991759;28;20648;-88
2023/07/14 05:05:36;;;;;;;172.93;167.43;;;17.50;99.90;;;;;;4975522;28;20180;-88
2023/07/14 05:08:03;;;;;;;156.93;151.90;;;17.60;99.90;;;;;;4991812;28;20223;-88
2023/07/14 05:10:32;;;;;;;154.10;149.07;;;17.80;99.90;;;;;;4974449;28;20336;-88
2023/07/14 05:12:58;;;;;;;166.53;160.93;;;18.00;99.90;;;;;;4958570;28;20228;-88
2023/07/14 05:15:25;;;;;;;157.57;152.53;;;17.90;99.90;;;;;;4991400;28;20668;-88
2023/07/14 05:17:55;;;;;;;152.97;147.57;;;18.00;99.90;;;;;;4974948;28;20175;-88
2023/07/14 05:20:21;;;;;;;158.10;152.73;;;18.00;99.90;;;;;;4974973;28;20200;-86
2023/07/14 05:22:52;;;;;;;146.87;142.17;;;18.10;99.90;;;;;;4991609;28;20212;-88
2023/07/14 05:25:20;;;;;;;123.17;119.13;;;18.10;99.90;;;;;;4974301;28;20595;-88
2023/07/14 05:27:46;;;;;;;125.17;120.57;;;18.40;99.90;;;;;;4974060;28;20223;-88
2023/07/14 05:30:14;;;;;;;138.77;134.30;;;19.60;99.90;;;;;;4973663;28;20314;-87
2023/07/14 05:32:42;;;;;;;113.30;109.40;;;20.20;99.90;;;;;;4989769;28;20208;-88
2023/07/14 05:35:11;;;;;;;135.97;131.60;;;21.50;99.90;;;;;;4973542;28;20282;-87
2023/07/14 05:37:38;;;;;;;154.77;149.73;;;22.90;99.90;;;;;;4991291;28;20290;-88
2023/07/14 05:40:10;;;;;;;161.03;156.03;;;24.00;99.90;;;;;;4973498;28;20218;-89
2023/07/14 05:42:37;;;;;;;167.43;162.10;;;24.80;99.90;;;;;;4974065;28;20246;-88
2023/07/14 05:45:03;;;;;;;161.20;155.93;;;25.10;99.90;;;;;;4976316;28;20586;-88
2023/07/14 05:47:29;;;;;;;153.00;147.93;;;25.40;99.90;;;;;;4974675;28;20176;-88
2023/07/14 05:49:55;;;;;;;137.40;133.07;;;25.90;99.90;;;;;;4972932;28;20220;-88
2023/07/14 05:52:22;;;;;;;135.47;130.73;;;26.50;99.90;;;;;;4973087;28;20259;-88
2023/07/14 05:54:48;;;;;;;131.57;127.28;;;26.90;99.90;;;;;;4973924;28;20203;-90
2023/07/14 05:57:15;;;;;;;138.52;133.75;;;27.40;99.90;;;;;;4989578;28;20191;-88
2023/07/14 05:59:41;;;;;;;147.65;142.90;;;28.10;99.90;;;;;;4973913;28;20640;-87
2023/07/14 06:02:11;;;;;;;136.85;132.52;;;27.00;99.90;;;;;;4973077;28;20220;-87
2023/07/14 06:04:37;;;;;;;139.93;135.10;;;27.50;99.90;;;;;;4957355;28;20220;-87
2023/07/14 06:07:04;;;;;;;140.88;136.30;;;27.80;99.90;;;;;;4973372;28;20220;-89
2023/07/14 06:09:34;;;;;;;124.13;120.10;;;27.10;99.90;;;;;;4972533;28;20642;-87
2023/07/14 06:12:02;;;;;;;119.88;115.78;;;27.20;99.90;;;;;;4990005;28;20176;-85
2023/07/14 06:14:28;;;;;;;100.38;96.63;;;28.70;99.90;;;;;;4990611;28;20432;-88
2023/07/14 06:16:53;;;;;;;82.75;79.57;;;27.50;99.90;;;;;;4972688;28;20235;-87
2023/07/14 06:19:20;;;;;;;69.75;67.07;;;27.70;99.90;;;;;;4972529;28;20219;-86
2023/07/14 06:21:45;;;;;;;50.78;48.47;;;27.80;99.90;;;;;;4971818;28;20215;-86
2023/07/14 06:24:11;;;;;;;42.63;40.92;;;27.90;99.90;;;;;;4972217;28;20637;-86
2023/07/14 06:26:37;;;;;;;36.40;34.90;;;27.70;99.90;;;;;;4957174;28;20599;-86
2023/07/14 06:29:03;;;;;;;33.83;32.22;;;27.50;99.90;;;;;;4955848;28;20310;-85
2023/07/14 06:31:28;;;;;;;30.77;29.35;;;28.00;99.90;;;;;;4956295;28;20574;-86
2023/07/14 06:33:55;;;;;;;28.80;27.40;;;27.50;99.90;;;;;;4997226;28;20302;-86
2023/07/14 06:36:21;;;;;;;30.42;28.80;;;28.10;99.90;;;;;;4991625;28;20211;-85
2023/07/14 06:38:47;;;;;;;31.27;29.95;;;29.40;99.90;;;;;;4991762;28;20179;-87
2023/07/14 06:41:13;;;;;;;28.63;27.30;;;29.50;99.90;;;;;;4987687;28;20319;-87
2023/07/14 06:43:39;;;;;;;28.88;27.17;;;29.60;99.90;;;;;;4972020;28;20506;-87
2023/07/14 06:46:05;;;;;;;27.23;26.13;;;30.30;99.90;;;;;;4988270;28;20665;-87
2023/07/14 06:48:30;;;;;;;30.55;29.08;;;29.80;99.90;;;;;;4988103;28;20208;-87
2023/07/14 06:50:56;;;;;;;29.17;28.17;;;29.00;99.90;;;;;;4987868;28;20183;-87
2023/07/14 06:53:23;;;;;;;26.83;25.45;;;27.10;99.90;;;;;;4988440;28;20279;-85
2023/07/14 06:55:49;;;;;;;28.33;27.15;;;26.20;99.90;;;;;;4988079;28;20220;-89
2023/07/14 06:58:15;;;;;;;26.45;25.38;;;25.90;99.90;;;;;;4948853;28;20554;-89
2023/07/14 07:00:40;;;;;;;28.08;26.50;;;26.00;99.90;;;;;;4955947;28;20533;-90
2023/07/14 07:03:07;;;;;;;28.40;27.30;;;26.60;99.90;;;;;;4971853;28;20393;-88
2023/07/14 07:05:37;;;;;;;28.33;27.02;;;27.10;99.90;;;;;;4941278;28;20172;-86
2023/07/14 07:08:04;;;;;;;27.45;26.25;;;27.90;99.90;;;;;;4971597;28;20216;-88
2023/07/14 07:10:30;;;;;;;28.30;27.20;;;27.40;99.90;;;;;;4955996;28;20212;-89
2023/07/14 07:12:56;;;;;;;28.02;26.92;;;26.60;99.90;;;;;;4972488;28;20621;-86
2023/07/14 07:15:22;;;;;;;26.60;25.48;;;25.40;99.90;;;;;;4989408;28;20211;-88
2023/07/14 07:17:48;;;;;;;28.60;27.50;;;24.40;99.90;;;;;;4957443;28;20176;-87
2023/07/14 07:20:14;;;;;;;29.20;28.10;;;24.50;99.90;;;;;;4940583;28;20297;-90
2023/07/14 07:22:40;;;;;;;28.65;27.33;;;26.60;99.90;;;;;;4972847;28;20215;-91
2023/07/14 07:25:07;;;;;;;28.33;27.15;;;27.30;99.90;;;;;;4979224;28;20212;-92
2023/07/14 07:27:33;;;;;;;28.58;27.15;;;28.70;99.90;;;;;;4988558;28;20211;-87
2023/07/14 07:30:00;;;;;;;29.23;27.88;;;27.90;99.90;;;;;;4988144;28;20260;-88
2023/07/14 07:32:31;;;;;;;29.67;28.30;;;27.00;99.90;;;;;;4989936;28;20616;-90
2023/07/14 07:34:59;;;;;;;28.92;27.83;;;26.40;99.90;;;;;;4972870;28;20207;-90
2023/07/14 07:37:31;;;;;;;26.02;25.02;;;24.80;99.90;;;;;;4991522;28;20242;-87
2023/07/14 07:39:59;;;;;;;29.80;28.70;;;24.30;99.90;;;;;;4988113;28;20212;-88
2023/07/14 07:42:25;;;;;;;36.25;34.95;;;23.40;99.90;;;;;;4988596;28;20363;-90
2023/07/14 07:44:51;;;;;;;43.13;41.33;;;22.80;99.90;;;;;;4972845;28;20524;-88
2023/07/14 07:47:16;;;;;;;58.80;56.58;;;22.10;99.90;;;;;;4988432;28;20223;-88
2023/07/14 07:49:42;;;;;;;63.15;60.95;;;23.10;99.90;;;;;;4988695;28;20231;-89
2023/07/14 07:52:11;;;;;;;58.78;56.50;;;25.10;99.90;;;;;;4988387;28;20572;-87
2023/07/14 07:54:38;;;;;;;46.33;44.53;;;27.40;99.90;;;;;;4972616;28;20212;-90
2023/07/14 07:57:06;;;;;;;37.35;35.70;;;27.50;99.90;;;;;;4993018;28;20172;-88
2023/07/14 07:59:33;;;;;;;33.30;32.10;;;26.00;99.90;;;;;;4993801;28;20184;-89
2023/07/14 08:01:59;;;;;;;33.17;31.75;;;25.70;99.90;;;;;;4987432;28;20219;-88
2023/07/14 08:04:25;;;;;;;36.45;35.05;;;25.00;99.90;;;;;;4973154;28;20299;-89
2023/07/14 08:06:51;;;;;;;36.95;35.47;;;24.80;99.90;;;;;;4991356;28;20653;-89
2023/07/14 08:09:17;;;;;;;36.65;34.95;;;25.40;99.90;;;;;;4989172;28;20239;-89
2023/07/14 08:11:43;;;;;;;36.80;34.95;;;25.40;99.90;;;;;;4991220;28;20614;-88
2023/07/14 08:14:14;;;;;;;29.95;28.75;;;27.20;99.90;;;;;;4991766;28;20299;-89
2023/07/14 08:16:42;;;;;;;29.80;28.50;;;28.30;99.90;;;;;;4990492;28;20211;-89
2023/07/14 08:19:15;;;;;;;31.38;30.13;;;28.30;99.90;;;;;;4990375;28;20228;-92
2023/07/14 08:21:45;;;;;;;32.85;31.63;;;26.90;99.90;;;;;;4973697;28;20212;-88
2023/07/14 08:24:15;;;;;;;31.83;30.60;;;25.00;99.90;;;;;;4990523;28;20669;-88
2023/07/14 08:26:46;;;;;;;32.15;30.67;;;24.40;99.90;;;;;;4991498;28;20180;-87
2023/07/14 08:29:16;;;;;;;30.17;29.00;;;24.30;99.90;;;;;;4994927;28;20601;-89
2023/07/14 08:31:46;;;;;;;31.70;30.52;;;25.60;99.90;;;;;;4993017;28;20748;-89
2023/07/14 08:34:14;;;;;;;31.10;29.70;;;26.60;99.90;;;;;;5010385;28;20218;-89
2023/07/14 08:36:43;;;;;;;32.53;31.33;;;27.00;99.90;;;;;;4978261;28;20612;-90
2023/07/14 08:39:09;;;;;;;29.48;28.38;;;27.50;99.90;;;;;;4994456;28;20186;-89
2023/07/14 08:41:38;;;;;;;33.25;31.77;;;26.50;99.90;;;;;;4993421;28;20518;-89
2023/07/14 08:44:38;;;;;;;46.25;44.63;;;25.50;99.90;;;;;;4993202;28;20223;-88
2023/07/14 08:47:08;;;;;;;28.05;26.92;;;25.20;99.90;;;;;;4993059;28;20215;-88
2023/07/14 08:50:11;;;;;;;35.13;33.63;;;26.20;99.90;;;;;;4993775;28;20326;-89
2023/07/14 08:52:39;;;;;;;30.63;29.45;;;26.20;99.90;;;;;;5010209;28;20554;-90
2023/07/14 08:55:24;;;;;;;35.60;34.38;;;27.00;99.90;;;;;;4994605;28;20218;-89
2023/07/14 08:57:57;;;;;;;30.42;29.23;;;26.90;99.90;;;;;;5011329;28;20207;-89
2023/07/14 09:00:36;;;;;;;31.05;29.75;;;27.00;99.90;;;;;;4993772;28;20211;-89
2023/07/14 09:03:37;;;;;;;31.75;30.52;;;28.20;99.90;;;;;;4992300;28;20215;-88
2023/07/14 09:06:30;;;;;;;30.35;29.20;;;28.10;99.90;;;;;;5010313;28;20183;-89
2023/07/14 09:08:59;;;;;;;32.97;31.67;;;28.20;99.90;;;;;;4994324;28;20195;-90
2023/07/14 09:12:02;;;;;;;30.23;29.08;;;27.80;99.90;;;;;;4994917;28;20175;-92
2023/07/14 09:14:34;;;;;;;28.10;27.10;;;28.50;99.90;;;;;;5010382;28;20219;-91
2023/07/14 09:17:14;;;;;;;27.55;26.17;;;28.70;99.90;;;;;;4993761;28;20219;-90
2023/07/14 09:19:57;;;;;;;30.83;29.73;;;28.70;99.90;;;;;;4993763;28;20622;-88
2023/07/14 09:22:33;;;;;;;32.30;31.08;;;29.20;99.90;;;;;;4993876;28;20226;-91
2023/07/14 09:25:18;;;;;;;34.35;33.05;;;29.20;99.90;;;;;;4993628;28;20223;-88
2023/07/14 09:27:46;;;;;;;41.00;39.50;;;28.40;99.90;;;;;;4993759;28;20215;-89
2023/07/14 09:30:20;;;;;;;45.72;44.15;;;29.10;99.90;;;;;;4985597;28;20225;-91
2023/07/14 09:32:51;;;;;;;43.50;41.95;;;28.60;99.90;;;;;;4955343;28;20193;-90
2023/07/14 09:35:20;;;;;;;43.65;42.05;;;29.20;99.90;;;;;;4973226;28;20540;-87
2023/07/14 09:38:07;;;;;;;42.10;40.13;;;29.60;99.90;;;;;;4991468;28;20240;-88
2023/07/14 09:40:38;;;;;;;43.60;41.80;;;29.30;99.90;;;;;;4973657;28;20257;-92
2023/07/14 09:43:06;;;;;;;44.35;42.78;;;29.30;99.90;;;;;;4981626;28;20296;-88
2023/07/14 09:45:37;;;;;;;44.97;43.35;;;29.50;99.90;;;;;;4944574;28;20218;-88
2023/07/14 09:48:11;;;;;;;43.05;41.55;;;28.70;99.90;;;;;;4956604;28;20185;-89
2023/07/14 09:50:41;;;;;;;46.40;44.55;;;29.00;99.90;;;;;;4971605;28;20172;-90
2023/07/14 09:53:08;;;;;;;40.95;39.30;;;29.50;99.90;;;;;;4954264;28;20212;-88
2023/07/14 09:55:52;;;;;;;42.42;40.72;;;30.30;99.90;;;;;;4963249;28;20240;-87
2023/07/14 09:58:23;;;;;;;45.33;43.67;;;30.00;99.90;;;;;;4971153;28;20227;-89
2023/07/14 10:00:50;;;;;;;44.72;42.88;;;29.30;99.90;;;;;;4969717;28;20220;-88
2023/07/14 10:03:19;;;;;;;45.83;44.00;;;29.00;99.90;;;;;;4953329;28;20274;-90
2023/07/14 10:05:54;;;;;;;44.30;42.80;;;28.40;99.90;;;;;;4954492;28;20185;-88
2023/07/14 10:08:48;;;;;;;44.40;42.80;;;28.80;99.90;;;;;;4969594;28;20220;-88
2023/07/14 10:11:19;;;;;;;45.95;44.35;;;28.70;99.90;;;;;;4971579;28;20219;-87
2023/07/14 10:14:05;;;;;;;43.67;41.88;;;27.90;99.90;;;;;;4972903;28;20231;-89
2023/07/14 10:16:32;;;;;;;41.08;39.58;;;27.30;99.90;;;;;;4972600;28;20291;-89
2023/07/14 10:19:17;;;;;;;41.28;39.70;;;27.60;99.90;;;;;;4972099;28;20211;-88
2023/07/14 10:21:50;;;;;;;43.25;41.70;;;28.30;99.90;;;;;;4971584;28;20211;-89
2023/07/14 10:24:18;;;;;;;43.17;41.58;;;27.10;99.90;;;;;;4968479;28;20240;-89
2023/07/14 10:26:57;;;;;;;40.65;39.20;;;26.40;99.90;;;;;;4953365;28;20211;-90
2023/07/14 10:29:26;;;;;;;40.70;39.10;;;26.60;99.90;;;;;;4994992;28;20245;-89
2023/07/14 10:32:03;;;;;;;36.95;35.35;;;26.30;99.90;;;;;;4990983;28;20229;-88
2023/07/14 10:34:42;;;;;;;37.63;36.20;;;26.60;99.90;;;;;;5008386;28;20300;-88
2023/07/14 10:37:27;;;;;;;36.50;35.17;;;27.20;99.90;;;;;;4991470;28;20211;-89
2023/07/14 10:40:04;;;;;;;39.25;37.58;;;27.60;99.90;;;;;;5008591;28;20223;-88
2023/07/14 10:42:35;;;;;;;41.80;40.03;;;27.70;99.90;;;;;;4991586;28;20203;-90
2023/07/14 10:45:02;;;;;;;35.15;33.75;;;27.20;99.90;;;;;;4992025;28;20180;-87
2023/07/14 10:47:38;;;;;;;31.73;30.33;;;26.80;99.90;;;;;;4992437;28;20596;-90
2023/07/14 10:50:18;;;;;;;36.90;35.17;;;26.40;99.90;;;;;;4991494;28;20227;-88
2023/07/14 10:52:50;;;;;;;38.58;37.17;;;26.60;99.90;;;;;;4991940;28;20207;-89
2023/07/14 10:55:31;;;;;;;35.25;33.50;;;25.90;99.90;;;;;;4990902;28;20281;-88
2023/07/14 10:58:31;;;;;;;34.17;32.90;;;26.60;99.90;;;;;;4991994;28;20237;-91
2023/07/14 11:01:04;;;;;;;38.90;37.33;;;26.80;99.90;;;;;;4987825;28;20212;-91
2023/07/14 11:03:38;;;;;;;39.70;37.95;;;27.10;99.90;;;;;;4992026;28;20273;-92
2023/07/14 11:06:16;;;;;;;33.65;32.08;;;25.90;99.90;;;;;;4991574;28;20195;-92
2023/07/14 11:08:42;;;;;;;33.78;32.47;;;25.90;99.90;;;;;;4992710;28;20171;-90
2023/07/14 11:11:29;;;;;;;32.90;31.67;;;26.30;99.90;;;;;;4975838;28;20226;-92
2023/07/14 11:14:26;;;;;;;34.95;33.33;;;26.80;99.90;;;;;;4991656;28;20223;-91
2023/07/14 11:17:04;;;;;;;39.90;38.13;;;27.30;99.90;;;;;;4991328;28;20219;-91
2023/07/14 11:19:39;;;;;;;38.65;36.80;;;27.50;99.90;;;;;;4991618;28;20219;-93
2023/07/14 11:22:12;;;;;;;35.58;34.10;;;26.70;99.90;;;;;;4992187;28;20219;-92
2023/07/14 11:24:44;;;;;;;33.40;31.92;;;27.00;99.90;;;;;;4992401;28;20231;-93
2023/07/14 11:27:16;;;;;;;33.88;32.30;;;27.40;99.90;;;;;;4992341;28;20202;-92
2023/07/14 11:30:14;;;;;;;33.35;31.85;;;27.40;99.90;;;;;;4987416;28;20243;-92
2023/07/14 11:33:19;;;;;;;35.47;33.92;;;27.20;99.90;;;;;;4993493;28;20223;-91
2023/07/14 11:36:11;;;;;;;34.65;33.25;;;26.80;99.90;;;;;;4992060;28;20558;-92
2023/07/14 11:38:57;;;;;;;31.65;30.15;;;26.60;99.90;;;;;;4993206;28;20192;-92
2023/07/14 11:41:24;;;;;;;32.13;30.83;;;26.60;99.90;;;;;;4993289;28;20196;-92
2023/07/14 11:43:51;;;;;;;33.55;32.15;;;26.60;99.90;;;;;;4993651;28;20239;-90
2023/07/14 11:46:19;;;;;;;31.90;30.50;;;27.00;99.90;;;;;;4995272;28;20208;-91
2023/07/14 11:48:54;;;;;;;33.78;32.47;;;26.40;99.90;;;;;;4994887;28;20223;-91
2023/07/14 11:51:41;;;;;;;30.85;29.65;;;26.10;99.90;;;;;;4999312;28;20338;-91
2023/07/14 11:54:18;;;;;;;42.20;40.65;;;25.90;99.90;;;;;;4985699;28;20184;-91
2023/07/14 11:57:01;;;;;;;35.10;33.70;;;25.80;99.90;;;;;;4993179;28;20188;-92
2023/07/14 11:59:30;;;;;;;37.13;34.80;;;25.90;99.90;;;;;;4993225;28;20207;-95
2023/07/14 12:02:19;;;;;;;34.42;32.92;;;26.10;99.90;;;;;;4975919;28;20228;-90
2023/07/14 12:04:59;;;;;;;37.55;35.65;;;26.10;99.90;;;;;;4975954;28;20239;-92
2023/07/14 12:07:25;;;;;;;35.08;33.78;;;25.90;99.90;;;;;;4975297;28;20298;-92
2023/07/14 12:09:57;;;;;;;36.13;34.55;;;25.90;99.90;;;;;;4959117;28;20295;-92
2023/07/14 12:12:23;;;;;;;34.65;33.13;;;25.90;99.90;;;;;;4992855;28;20344;-91
2023/07/14 12:14:50;;;;;;;33.03;31.63;;;25.80;99.90;;;;;;4993947;28;20184;-92
2023/07/14 12:17:38;;;;;;;34.05;32.67;;;25.50;99.90;;;;;;4974996;28;20711;-91
2023/07/14 12:20:14;;;;;;;33.08;31.65;;;25.40;99.90;;;;;;4988940;28;20216;-89
2023/07/14 12:22:47;;;;;;;36.40;34.42;;;24.70;99.90;;;;;;5007241;28;20231;-91
2023/07/14 12:25:22;;;;;;;34.03;32.72;;;24.70;99.90;;;;;;4991346;28;20240;-91
2023/07/14 12:27:51;;;;;;;37.17;35.38;;;24.90;99.90;;;;;;5007364;28;20220;-89
2023/07/14 12:30:25;;;;;;;33.70;32.25;;;24.70;99.90;;;;;;4982870;28;20228;-90
2023/07/14 12:33:11;;;;;;;35.92;34.25;;;24.70;99.90;;;;;;4993050;28;20199;-88
2023/07/14 12:35:37;;;;;;;35.28;33.78;;;24.60;99.90;;;;;;4975656;28;20199;-89
2023/07/14 12:38:11;;;;;;;35.35;33.70;;;24.80;99.90;;;;;;4991964;28;20254;-89
2023/07/14 12:40:38;;;;;;;35.80;34.10;;;25.00;99.90;;;;;;4974344;28;20241;-90
2023/07/14 12:43:07;;;;;;;34.55;33.10;;;24.90;99.90;;;;;;4991753;28;20686;-90
2023/07/14 12:45:34;;;;;;;40.95;39.05;;;24.70;99.90;;;;;;4974935;28;20218;-92
2023/07/14 12:48:02;;;;;;;37.00;35.38;;;24.70;99.90;;;;;;4975729;28;20650;-92
2023/07/14 12:50:29;;;;;;;38.50;36.42;;;24.60;99.90;;;;;;4991835;28;20210;-89
2023/07/14 12:52:56;;;;;;;41.15;39.25;;;24.50;99.90;;;;;;4959105;28;20885;-89
2023/07/14 12:55:26;;;;;;;39.72;37.83;;;24.60;99.90;;;;;;4974766;28;20576;-88
2023/07/14 12:57:52;;;;;;;40.28;38.40;;;24.60;99.90;;;;;;4959492;28;20223;-90
2023/07/14 13:00:19;;;;;;;39.63;37.92;;;24.70;99.90;;;;;;4974892;28;20216;-87
2023/07/14 13:02:45;;;;;;;37.72;36.03;;;24.70;99.90;;;;;;4975081;28;20184;-90
2023/07/14 13:05:15;;;;;;;41.47;39.65;;;24.50;99.90;;;;;;4958808;28;20231;-90
2023/07/14 13:07:45;;;;;;;43.85;41.95;;;24.20;99.90;;;;;;4992080;28;20235;-88
2023/07/14 13:10:21;;;;;;;44.08;41.85;;;23.80;99.90;;;;;;4990907;28;20287;-86
2023/07/14 13:12:50;;;;;;;43.25;41.35;;;23.30;99.90;;;;;;4974856;28;20215;-91
2023/07/14 13:15:18;;;;;;;46.70;44.70;;;23.40;99.90;;;;;;4974763;28;20224;-90
2023/07/14 13:17:44;;;;;;;45.92;44.08;;;23.50;99.90;;;;;;4991661;28;20247;-90
2023/07/14 13:20:29;;;;;;;54.85;52.20;;;23.60;99.90;;;;;;4971215;28;20224;-90
2023/07/14 13:23:18;;;;;;;53.25;51.10;;;23.40;99.90;;;;;;4971004;28;20242;-87
2023/07/14 13:26:04;;;;;;;55.65;53.00;;;23.50;99.90;;;;;;4970731;28;20225;-86
2023/07/14 13:28:39;;;;;;;55.65;53.40;;;23.80;99.90;;;;;;4959371;28;20226;-86
2023/07/14 13:31:17;;;;;;;53.90;51.78;;;23.40;99.90;;;;;;4988801;28;20234;-89
2023/07/14 13:33:44;;;;;;;61.45;58.55;;;23.40;99.90;;;;;;4993479;28;20619;-86
2023/07/14 13:36:22;;;;;;;64.38;61.70;;;23.40;99.90;;;;;;5010094;28;20180;-86
2023/07/14 13:38:49;;;;;;;62.35;59.58;;;23.50;99.90;;;;;;5010878;28;20195;-86
2023/07/14 13:41:23;;;;;;;61.30;58.67;;;23.00;99.90;;;;;;4976481;28;20223;-86
2023/07/14 13:43:49;;;;;;;55.83;53.33;;;22.50;99.90;;;;;;5010022;28;20393;-86
2023/07/14 13:46:23;;;;;;;58.17;55.65;;;22.10;99.90;;;;;;4992248;28;20231;-85
2023/07/14 13:49:10;;;;;;;63.85;61.15;;;22.10;99.90;;;;;;5009685;28;20237;-86
2023/07/14 13:51:36;;;;;;;67.80;65.10;;;22.30;99.90;;;;;;5006025;28;20269;-87
2023/07/14 13:54:13;;;;;;;62.35;59.97;;;22.60;99.90;;;;;;4973748;28;20210;-86
2023/07/14 13:56:38;;;;;;;63.47;61.00;;;22.80;99.90;;;;;;4992035;28;20171;-87
2023/07/14 13:59:18;;;;;;;64.93;62.50;;;22.80;99.90;;;;;;4974956;28;20215;-86
2023/07/14 14:01:44;;;;;;;67.43;64.55;;;22.90;99.90;;;;;;4991232;28;20231;-87